createdAt,value
2023-05-24T00:01:57.134Z,67.47
2023-05-24T00:04:25.587Z,67.91
2023-05-24T00:06:55.160Z,67.78
2023-05-24T00:09:22.005Z,68.03
2023-05-24T00:11:48.999Z,67.63
2023-05-24T00:14:15.931Z,67.61
2023-05-24T00:16:42.762Z,67.66
2023-05-24T00:19:11.562Z,68.01
2023-05-24T00:21:38.590Z,68.57
2023-05-24T00:24:05.420Z,68.37
2023-05-24T00:26:34.333Z,67.67
2023-05-24T00:29:00.965Z,68.18
2023-05-24T00:31:27.570Z,68.69
2023-05-24T00:33:54.192Z,68.00
2023-05-24T00:36:21.106Z,67.79
2023-05-24T00:38:47.837Z,68.57
2023-05-24T00:41:14.656Z,68.07
2023-05-24T00:43:43.425Z,68.70
2023-05-24T00:46:15.724Z,68.02
2023-05-24T00:48:43.497Z,67.85
2023-05-24T00:51:12.407Z,68.46
2023-05-24T00:53:41.542Z,69.18
2023-05-24T00:56:08.754Z,69.15
2023-05-24T00:58:35.673Z,69.06
2023-05-24T01:01:03.136Z,69.18
2023-05-24T01:03:30.210Z,69.04
2023-05-24T01:06:01.758Z,69.04
2023-05-24T01:08:35.684Z,69.29
2023-05-24T01:11:30.336Z,69.12
2023-05-24T01:14:21.500Z,68.32
2023-05-24T01:16:56.606Z,69.21
2023-05-24T01:19:35.527Z,69.34
2023-05-24T01:22:30.082Z,70.35
2023-05-24T01:25:42.031Z,69.38
2023-05-24T01:28:10.608Z,69.36
2023-05-24T01:30:37.353Z,69.62
2023-05-24T01:33:05.697Z,69.88
2023-05-24T01:35:32.357Z,70.24
2023-05-24T01:37:58.950Z,69.76
2023-05-24T01:40:25.978Z,69.72
2023-05-24T01:42:58.112Z,70.60
2023-05-24T01:45:48.749Z,70.36
2023-05-24T01:48:49.338Z,70.04
2023-05-24T01:51:19.667Z,69.84
2023-05-24T01:53:49.100Z,70.14
2023-05-24T01:56:17.283Z,70.26
2023-05-24T01:58:45.736Z,70.31
2023-05-24T02:01:13.665Z,70.58
2023-05-24T02:03:43.395Z,70.81
2023-05-24T02:06:10.958Z,70.91
2023-05-24T02:08:37.704Z,71.01
2023-05-24T02:11:04.461Z,71.41
2023-05-24T02:13:31.055Z,71.40
2023-05-24T02:15:57.689Z,71.75
2023-05-24T02:18:24.348Z,72.03
2023-05-24T02:20:51.538Z,72.77
2023-05-24T02:23:18.198Z,72.92
2023-05-24T02:25:44.890Z,73.18
2023-05-24T02:28:11.542Z,73.07
2023-05-24T02:30:39.882Z,73.62
2023-05-24T02:33:06.824Z,73.89
2023-05-24T02:35:36.603Z,73.81
2023-05-24T02:38:06.844Z,74.21
2023-05-24T02:40:33.785Z,74.53
2023-05-24T02:43:00.337Z,74.62
2023-05-24T02:45:27.005Z,74.73
2023-05-24T02:47:53.659Z,74.43
2023-05-24T02:50:20.286Z,74.56
2023-05-24T02:52:46.915Z,74.49
2023-05-24T02:55:13.555Z,74.96
2023-05-24T02:57:41.818Z,74.85
2023-05-24T03:00:09.889Z,75.46
2023-05-24T03:02:38.820Z,75.43
2023-05-24T03:05:06.147Z,75.63
2023-05-24T03:07:32.816Z,75.75
2023-05-24T03:09:59.528Z,75.69
2023-05-24T03:12:26.472Z,76.00
2023-05-24T03:14:53.008Z,75.87
2023-05-24T03:17:19.604Z,75.92
2023-05-24T03:19:46.213Z,75.91
2023-05-24T03:22:12.866Z,75.49
2023-05-24T03:24:40.334Z,75.94
2023-05-24T03:27:07.189Z,75.80
2023-05-24T03:29:33.844Z,76.27
2023-05-24T03:32:00.681Z,75.94
2023-05-24T03:34:27.380Z,76.76
2023-05-24T03:36:53.967Z,76.02
2023-05-24T03:39:20.604Z,75.93
2023-05-24T03:41:47.208Z,75.77
2023-05-24T03:44:13.856Z,75.95
2023-05-24T03:46:40.884Z,75.88
2023-05-24T03:49:09.131Z,76.14
2023-05-24T03:51:36.354Z,76.08
2023-05-24T03:54:03.289Z,75.88
2023-05-24T03:56:30.133Z,76.14
2023-05-24T03:59:00.777Z,75.91
2023-05-24T04:01:34.188Z,76.18
2023-05-24T04:04:02.298Z,76.08
2023-05-24T04:06:30.196Z,76.00
2023-05-24T04:08:58.834Z,75.84
2023-05-24T04:11:28.620Z,75.57
2023-05-24T04:13:56.238Z,75.38
2023-05-24T04:16:27.607Z,75.66
2023-05-24T04:18:57.982Z,75.66
2023-05-24T04:21:24.802Z,75.93
2023-05-24T04:23:51.424Z,76.00
2023-05-24T04:26:18.573Z,76.14
2023-05-24T04:28:48.797Z,75.60
2023-05-24T04:31:16.693Z,75.73
2023-05-24T04:33:43.632Z,75.54
2023-05-24T04:36:11.848Z,75.25
2023-05-24T04:38:39.446Z,76.00
2023-05-24T04:41:06.015Z,75.91
2023-05-24T04:43:34.855Z,75.72
2023-05-24T04:46:03.067Z,75.33
2023-05-24T04:48:29.871Z,75.35
2023-05-24T04:51:00.917Z,75.24
2023-05-24T04:53:30.321Z,75.63
2023-05-24T04:55:56.882Z,75.60
2023-05-24T04:58:23.580Z,75.04
2023-05-24T05:00:50.273Z,74.30
2023-05-24T05:03:17.165Z,74.08
2023-05-24T05:05:44.679Z,75.12
2023-05-24T05:08:11.367Z,75.43
2023-05-24T05:10:37.971Z,75.67
2023-05-24T05:13:04.808Z,75.17
2023-05-24T05:15:31.490Z,75.33
2023-05-24T05:17:58.164Z,75.32
2023-05-24T05:20:25.569Z,74.88
2023-05-24T05:22:52.228Z,75.32
2023-05-24T05:25:20.387Z,75.27
2023-05-24T05:27:47.093Z,74.77
2023-05-24T05:30:14.074Z,74.57
2023-05-24T05:32:40.999Z,74.44
2023-05-24T05:35:08.304Z,74.60
2023-05-24T05:37:42.892Z,73.82
2023-05-24T05:40:09.981Z,73.35
2023-05-24T05:42:39.320Z,72.99
2023-05-24T05:45:06.635Z,73.00
2023-05-24T05:47:33.360Z,72.15
2023-05-24T05:50:00.199Z,73.08
2023-05-24T05:52:26.812Z,72.28
2023-05-24T05:54:54.634Z,72.18
2023-05-24T05:57:24.622Z,71.19
2023-05-24T05:59:51.629Z,70.46
2023-05-24T06:02:24.873Z,71.05
2023-05-24T06:04:51.855Z,70.37
2023-05-24T06:07:25.927Z,70.64
2023-05-24T06:09:52.567Z,69.73
2023-05-24T06:12:20.659Z,69.06
2023-05-24T06:14:50.753Z,69.45
2023-05-24T06:17:17.482Z,69.15
2023-05-24T06:19:44.195Z,67.23
2023-05-24T06:22:11.099Z,67.92
2023-05-24T06:24:37.972Z,68.25
2023-05-24T06:27:05.705Z,68.46
2023-05-24T06:29:32.415Z,68.59
2023-05-24T06:31:59.064Z,66.98
2023-05-24T06:34:25.852Z,66.79
2023-05-24T06:36:53.137Z,67.69
2023-05-24T06:39:19.987Z,66.34
2023-05-24T06:41:47.483Z,66.23
2023-05-24T06:44:14.294Z,65.39
2023-05-24T06:46:41.122Z,65.43
2023-05-24T06:49:07.866Z,65.06
2023-05-24T06:51:34.725Z,65.42
2023-05-24T06:54:01.213Z,66.11
2023-05-24T06:56:29.141Z,64.47
2023-05-24T06:58:56.510Z,64.97
2023-05-24T07:01:23.509Z,64.65
2023-05-24T07:03:50.299Z,64.29
2023-05-24T07:06:17.380Z,63.54
2023-05-24T07:08:44.030Z,63.06
2023-05-24T07:11:10.770Z,61.76
2023-05-24T07:13:38.981Z,62.21
2023-05-24T07:16:06.694Z,62.25
2023-05-24T07:18:33.410Z,62.64
2023-05-24T07:21:04.294Z,62.29
2023-05-24T07:23:31.400Z,62.64
2023-05-24T07:25:58.065Z,62.89
2023-05-24T07:28:24.838Z,63.29
2023-05-24T07:30:51.934Z,62.78
2023-05-24T07:33:19.019Z,61.22
2023-05-24T07:35:51.901Z,60.77
2023-05-24T07:38:21.657Z,60.41
2023-05-24T07:40:49.336Z,60.41
2023-05-24T07:43:16.097Z,60.39
2023-05-24T07:45:44.008Z,60.81
2023-05-24T07:48:11.165Z,60.37
2023-05-24T07:50:39.124Z,59.03
2023-05-24T07:53:06.524Z,58.87
2023-05-24T07:55:34.802Z,59.71
2023-05-24T07:58:01.671Z,59.62
2023-05-24T08:00:28.443Z,60.27
2023-05-24T08:02:55.185Z,60.45
2023-05-24T08:05:22.396Z,60.08
2023-05-24T08:07:50.401Z,56.16
2023-05-24T08:10:17.378Z,55.40
2023-05-24T08:12:45.596Z,54.87
2023-05-24T08:15:12.512Z,55.59
2023-05-24T08:17:39.806Z,54.71
2023-05-24T08:20:09.127Z,54.60
2023-05-24T08:22:37.416Z,52.07
2023-05-24T08:25:04.460Z,53.95
2023-05-24T08:27:31.410Z,52.61
2023-05-24T08:29:58.104Z,55.06
2023-05-24T08:32:25.059Z,53.39
2023-05-24T08:34:57.775Z,55.01
2023-05-24T08:37:28.513Z,55.45
2023-05-24T08:39:55.221Z,56.36
2023-05-24T08:42:23.091Z,57.88
2023-05-24T08:44:58.836Z,55.97
2023-05-24T08:47:27.069Z,57.60
2023-05-24T08:49:53.966Z,57.13
2023-05-24T08:52:22.541Z,57.02
2023-05-24T08:54:50.282Z,57.43
2023-05-24T08:57:18.208Z,56.42
2023-05-24T08:59:44.894Z,56.82
2023-05-24T09:02:14.824Z,56.85
2023-05-24T09:04:44.470Z,56.93
2023-05-24T09:07:14.030Z,57.12
2023-05-24T09:09:48.145Z,56.39
2023-05-24T09:12:35.609Z,55.97
2023-05-24T09:15:07.206Z,56.24
2023-05-24T09:17:38.285Z,56.08
2023-05-24T09:20:09.283Z,56.04
2023-05-24T09:22:40.792Z,55.52
2023-05-24T09:25:10.003Z,55.91
2023-05-24T09:27:37.721Z,56.77
2023-05-24T09:30:12.933Z,56.27
2023-05-24T09:32:39.891Z,54.35
2023-05-24T09:35:10.918Z,54.03
2023-05-24T09:37:39.176Z,52.80
2023-05-24T09:40:07.397Z,54.07
2023-05-24T09:42:34.247Z,53.86
2023-05-24T09:45:07.019Z,53.99
2023-05-24T09:47:35.191Z,54.17
2023-05-24T09:50:03.674Z,53.09
2023-05-24T09:52:31.721Z,52.66
2023-05-24T09:55:00.417Z,51.88
2023-05-24T09:57:28.361Z,51.86
2023-05-24T09:59:55.095Z,53.29
2023-05-24T10:02:24.005Z,52.67
2023-05-24T10:05:00.252Z,51.96
2023-05-24T10:07:27.353Z,51.22
2023-05-24T10:09:54.351Z,52.46
2023-05-24T10:12:23.432Z,50.65
2023-05-24T10:14:52.150Z,51.59
2023-05-24T10:17:19.775Z,51.19
2023-05-24T10:19:46.553Z,51.93
2023-05-24T10:22:15.968Z,47.46
2023-05-24T10:24:47.854Z,47.77
2023-05-24T10:27:19.649Z,49.72
2023-05-24T10:30:01.561Z,47.63
2023-05-24T10:32:32.413Z,46.78
2023-05-24T10:35:00.715Z,46.51
2023-05-24T10:37:27.455Z,47.52
2023-05-24T10:39:54.393Z,46.96
2023-05-24T10:42:21.545Z,46.88
2023-05-24T10:44:48.186Z,47.20
2023-05-24T10:47:17.118Z,47.23
2023-05-24T10:49:52.505Z,47.29
2023-05-24T10:52:19.729Z,47.49
2023-05-24T10:55:05.707Z,46.88
2023-05-24T10:57:33.177Z,46.90
2023-05-24T11:00:35.402Z,49.11
2023-05-24T11:03:06.936Z,46.90
2023-05-24T11:05:51.964Z,47.47
2023-05-24T11:08:45.226Z,47.67
2023-05-24T11:11:25.831Z,47.76
2023-05-24T11:13:58.083Z,45.35
2023-05-24T11:16:39.600Z,45.25
2023-05-24T11:19:16.555Z,46.78
2023-05-24T11:21:46.270Z,46.60
2023-05-24T11:24:13.493Z,47.27
2023-05-24T11:26:41.323Z,47.73
2023-05-24T11:29:08.153Z,47.04
2023-05-24T11:31:37.912Z,47.90
2023-05-24T11:34:13.089Z,48.02
2023-05-24T11:36:42.403Z,47.98
2023-05-24T11:39:09.768Z,46.87
2023-05-24T11:41:38.951Z,47.22
2023-05-24T11:44:12.356Z,45.99
2023-05-24T11:46:40.600Z,47.52
2023-05-24T11:49:07.536Z,46.32
2023-05-24T11:51:36.104Z,45.71
2023-05-24T11:54:02.776Z,43.90
2023-05-24T11:56:38.629Z,44.75
2023-05-24T11:59:12.438Z,46.00
2023-05-24T12:01:39.141Z,45.72
2023-05-24T12:04:12.273Z,46.58
2023-05-24T12:06:44.007Z,46.33
2023-05-24T12:09:16.697Z,47.16
2023-05-24T12:11:47.553Z,48.67
2023-05-24T12:14:17.300Z,48.19
2023-05-24T12:16:49.343Z,46.69
2023-05-24T12:21:59.489Z,49.12
2023-05-24T12:24:27.316Z,48.92
2023-05-24T12:27:08.999Z,49.30
2023-05-24T12:29:41.159Z,49.79
2023-05-24T12:32:13.678Z,48.17
2023-05-24T12:34:42.612Z,48.94
2023-05-24T12:37:10.402Z,50.40
2023-05-24T12:39:37.927Z,49.62
2023-05-24T12:42:06.314Z,50.82
2023-05-24T12:44:37.080Z,50.88
2023-05-24T12:47:08.646Z,51.79
2023-05-24T12:49:35.962Z,51.20
2023-05-24T12:52:02.864Z,52.12
2023-05-24T12:54:30.156Z,52.60
2023-05-24T12:57:00.395Z,51.57
2023-05-24T12:59:28.947Z,50.99
2023-05-24T13:01:58.181Z,51.56
2023-05-24T13:04:27.736Z,51.50
2023-05-24T13:06:54.988Z,51.21
2023-05-24T13:09:23.738Z,49.78
2023-05-24T13:11:51.076Z,49.96
2023-05-24T13:14:18.465Z,49.89
2023-05-24T13:16:45.426Z,50.24
2023-05-24T13:19:13.631Z,49.44
2023-05-24T13:21:40.767Z,49.77
2023-05-24T13:24:07.902Z,49.22
2023-05-24T13:26:38.205Z,49.39
2023-05-24T13:31:41.134Z,49.32
2023-05-24T13:34:10.966Z,47.77
2023-05-24T13:36:38.382Z,48.09
2023-05-24T13:39:15.565Z,48.98
2023-05-24T13:41:44.631Z,48.76
2023-05-24T13:44:12.567Z,47.67
2023-05-24T13:46:41.150Z,48.85
2023-05-24T13:49:09.488Z,47.25
2023-05-24T13:51:36.907Z,47.76
2023-05-24T13:54:07.414Z,50.31
2023-05-24T13:56:36.767Z,48.32
2023-05-24T13:59:04.839Z,48.20
2023-05-24T14:01:32.648Z,47.62
2023-05-24T14:04:01.653Z,48.63
2023-05-24T14:06:29.374Z,46.33
2023-05-24T14:08:56.116Z,46.52
2023-05-24T14:11:22.986Z,46.56
2023-05-24T14:16:20.694Z,46.13
2023-05-24T14:18:49.368Z,47.52
2023-05-24T14:21:16.520Z,47.55
2023-05-24T14:23:43.259Z,47.72
2023-05-24T14:26:09.944Z,45.79
2023-05-24T14:28:36.658Z,46.11
2023-05-24T14:31:03.518Z,46.35
2023-05-24T14:33:30.329Z,46.20
2023-05-24T14:35:58.330Z,46.14
2023-05-24T14:38:25.729Z,46.78
2023-05-24T14:40:52.446Z,47.20
2023-05-24T14:43:19.147Z,46.22
2023-05-24T14:45:46.042Z,46.73
2023-05-24T14:48:13.355Z,45.71
2023-05-24T14:50:41.442Z,46.08
2023-05-24T14:53:15.193Z,46.51
2023-05-24T14:55:43.980Z,47.01
2023-05-24T14:58:12.282Z,47.03
2023-05-24T15:00:45.688Z,48.05
2023-05-24T15:03:14.753Z,45.91
2023-05-24T15:05:43.152Z,46.68
2023-05-24T15:08:14.085Z,45.97
2023-05-24T15:10:41.311Z,45.60
2023-05-24T15:13:09.896Z,45.85
2023-05-24T15:15:36.616Z,46.34
2023-05-24T15:18:03.399Z,45.77
2023-05-24T15:20:30.295Z,48.01
2023-05-24T15:22:57.116Z,47.44
2023-05-24T15:25:23.791Z,46.76
2023-05-24T15:27:52.191Z,47.72
2023-05-24T15:30:20.082Z,48.06
2023-05-24T15:32:49.230Z,46.80
2023-05-24T15:35:17.416Z,47.56
2023-05-24T15:37:44.070Z,48.55
2023-05-24T15:40:11.721Z,48.37
2023-05-24T15:42:38.698Z,49.00
2023-05-24T15:45:06.018Z,50.18
2023-05-24T15:47:38.154Z,49.26
2023-05-24T15:50:06.376Z,49.09
2023-05-24T15:52:35.172Z,50.16
2023-05-24T15:55:02.059Z,50.01
2023-05-24T15:57:28.723Z,50.73
2023-05-24T15:59:55.544Z,50.09
2023-05-24T16:02:22.634Z,49.81
2023-05-24T16:04:50.007Z,50.88
2023-05-24T16:07:18.317Z,50.43
2023-05-24T16:09:46.944Z,52.07
2023-05-24T16:12:13.719Z,51.68
2023-05-24T16:14:40.320Z,50.27
2023-05-24T16:17:07.776Z,52.01
2023-05-24T16:19:36.364Z,50.22
2023-05-24T16:22:03.291Z,51.08
2023-05-24T16:24:30.626Z,51.30
2023-05-24T16:26:58.689Z,49.89
2023-05-24T16:29:27.925Z,51.04
2023-05-24T16:31:54.656Z,52.06
2023-05-24T16:34:23.875Z,51.67
2023-05-24T16:36:50.565Z,51.93
2023-05-24T16:39:17.403Z,51.99
2023-05-24T16:41:44.291Z,52.65
2023-05-24T16:44:17.585Z,51.74
2023-05-24T16:46:45.807Z,52.80
2023-05-24T16:49:13.030Z,51.63
2023-05-24T16:51:39.958Z,51.48
2023-05-24T16:54:09.517Z,51.25
2023-05-24T16:56:37.991Z,51.87
2023-05-24T16:59:05.607Z,52.41
2023-05-24T17:01:34.709Z,52.24
2023-05-24T17:04:01.742Z,52.00
2023-05-24T17:06:28.561Z,51.61
2023-05-24T17:08:55.171Z,51.55
2023-05-24T17:11:23.342Z,52.70
2023-05-24T17:13:52.427Z,53.46
2023-05-24T17:16:20.789Z,53.63
2023-05-24T17:18:55.315Z,53.77
2023-05-24T17:21:29.021Z,53.79
2023-05-24T17:23:57.255Z,52.73
2023-05-24T17:29:05.420Z,54.04
2023-05-24T17:31:32.936Z,53.85
2023-05-24T17:33:59.988Z,53.97
2023-05-24T17:36:26.570Z,54.08
2023-05-24T17:38:53.060Z,54.27
2023-05-24T17:41:19.613Z,54.39
2023-05-24T17:43:46.259Z,53.73
2023-05-24T17:46:13.676Z,54.32
2023-05-24T17:48:40.966Z,54.46
2023-05-24T17:51:08.913Z,53.95
2023-05-24T17:53:37.103Z,54.96
2023-05-24T17:56:05.394Z,54.87
2023-05-24T17:58:36.316Z,54.75
2023-05-24T18:01:08.976Z,54.73
2023-05-24T18:03:39.266Z,55.03
2023-05-24T18:06:07.599Z,55.33
2023-05-24T18:08:39.091Z,55.56
2023-05-24T18:11:08.749Z,56.00
2023-05-24T18:13:36.639Z,57.24
2023-05-24T18:16:03.448Z,56.75
2023-05-24T18:18:30.414Z,56.81
2023-05-24T18:20:57.038Z,56.38
2023-05-24T18:23:23.609Z,57.43
2023-05-24T18:25:50.162Z,57.69
2023-05-24T18:28:27.068Z,57.63
2023-05-24T18:30:53.610Z,57.44
2023-05-24T18:33:20.272Z,57.61
2023-05-24T18:35:46.816Z,57.73
2023-05-24T18:38:13.349Z,57.64
2023-05-24T18:40:39.914Z,57.79
2023-05-24T18:43:06.428Z,58.38
2023-05-24T18:45:32.979Z,58.40
2023-05-24T18:48:01.312Z,58.73
2023-05-24T18:50:27.953Z,59.78
2023-05-24T18:52:54.466Z,60.07
2023-05-24T18:55:21.045Z,60.22
2023-05-24T18:57:47.928Z,59.33
2023-05-24T19:00:14.701Z,60.27
2023-05-24T19:02:41.502Z,60.34
2023-05-24T19:05:08.615Z,61.25
2023-05-24T19:07:36.016Z,60.68
2023-05-24T19:10:03.302Z,60.80
2023-05-24T19:12:30.390Z,60.87
2023-05-24T19:14:57.178Z,61.35
2023-05-24T19:17:25.074Z,62.04
2023-05-24T19:19:52.056Z,61.51
2023-05-24T19:22:18.776Z,61.90
2023-05-24T19:24:45.254Z,61.79
2023-05-24T19:27:11.899Z,62.90
2023-05-24T19:29:40.017Z,62.51
2023-05-24T19:32:11.764Z,63.28
2023-05-24T19:34:42.342Z,63.34
2023-05-24T19:37:09.794Z,63.28
2023-05-24T19:39:37.336Z,63.56
2023-05-24T19:42:04.514Z,63.31
2023-05-24T19:44:31.233Z,63.11
2023-05-24T19:46:57.764Z,63.21
2023-05-24T19:49:24.488Z,62.75
2023-05-24T19:51:51.072Z,63.78
2023-05-24T19:54:17.627Z,63.22
2023-05-24T19:56:44.200Z,63.88
2023-05-24T19:59:10.781Z,64.34
2023-05-24T20:01:37.367Z,63.34
2023-05-24T20:04:04.010Z,63.97
2023-05-24T20:06:31.564Z,63.73
2023-05-24T20:08:59.732Z,64.20
2023-05-24T20:11:26.767Z,64.37
2023-05-24T20:13:53.476Z,64.22
2023-05-24T20:16:19.999Z,64.63
2023-05-24T20:18:46.721Z,64.13
2023-05-24T20:21:13.330Z,64.94
2023-05-24T20:23:39.945Z,65.51
2023-05-24T20:26:06.548Z,66.50
2023-05-24T20:28:33.140Z,66.90
2023-05-24T20:30:59.878Z,67.71
2023-05-24T20:33:26.355Z,67.89
2023-05-24T20:35:56.027Z,68.02
2023-05-24T20:38:23.445Z,67.98
2023-05-24T20:40:50.000Z,68.62
2023-05-24T20:43:16.593Z,68.66
2023-05-24T20:45:43.390Z,68.89
2023-05-24T20:48:10.145Z,68.71
2023-05-24T20:50:37.207Z,68.62
2023-05-24T20:53:03.776Z,69.06
2023-05-24T20:55:31.283Z,68.27
2023-05-24T20:57:57.847Z,68.11
2023-05-24T21:00:24.401Z,68.59
2023-05-24T21:02:51.491Z,68.55
2023-05-24T21:05:18.219Z,68.96
2023-05-24T21:07:44.807Z,69.22
2023-05-24T21:10:18.546Z,69.35
2023-05-24T21:12:45.154Z,69.69
2023-05-24T21:15:11.931Z,69.91
2023-05-24T21:17:39.317Z,69.88
2023-05-24T21:20:06.312Z,69.92
2023-05-24T21:22:32.918Z,70.20
2023-05-24T21:24:59.529Z,70.46
2023-05-24T21:27:27.551Z,70.82
2023-05-24T21:29:54.253Z,71.06
2023-05-24T21:32:20.944Z,72.13
2023-05-24T21:34:47.548Z,72.57
2023-05-24T21:37:14.114Z,72.29
2023-05-24T21:39:41.029Z,72.06
2023-05-24T21:42:07.611Z,72.62
2023-05-24T21:44:34.166Z,72.88
2023-05-24T21:47:00.937Z,73.00
2023-05-24T21:49:27.735Z,73.44
2023-05-24T21:51:54.295Z,74.02
2023-05-24T21:54:21.009Z,74.37
2023-05-24T21:56:47.600Z,74.28
2023-05-24T21:59:14.995Z,74.59
2023-05-24T22:01:42.035Z,74.58
2023-05-24T22:04:09.755Z,74.74
2023-05-24T22:06:36.602Z,75.40
2023-05-24T22:09:03.105Z,75.60
2023-05-24T22:11:29.731Z,76.00
2023-05-24T22:13:56.744Z,76.02
2023-05-24T22:16:24.116Z,76.48
2023-05-24T22:18:55.595Z,76.76
2023-05-24T22:21:22.849Z,77.35
2023-05-24T22:23:51.593Z,77.09
2023-05-24T22:26:18.185Z,77.26
2023-05-24T22:28:55.502Z,76.91
2023-05-24T22:31:24.128Z,76.95
2023-05-24T22:33:51.265Z,76.99
2023-05-24T22:36:18.850Z,77.15
2023-05-24T22:38:45.509Z,77.28
2023-05-24T22:41:12.181Z,77.22
2023-05-24T22:43:38.736Z,76.94
2023-05-24T22:46:06.674Z,76.98
2023-05-24T22:48:35.074Z,76.98
2023-05-24T22:51:01.812Z,76.58
2023-05-24T22:53:28.854Z,77.11
2023-05-24T22:55:55.435Z,76.88
2023-05-24T22:58:23.732Z,76.69
2023-05-24T23:00:51.429Z,76.45
2023-05-24T23:03:18.375Z,76.32
2023-05-24T23:05:45.887Z,76.21
2023-05-24T23:08:15.383Z,76.02
2023-05-24T23:10:48.212Z,76.14
2023-05-24T23:13:16.903Z,76.36
2023-05-24T23:15:43.807Z,76.40
2023-05-24T23:18:16.112Z,76.72
2023-05-24T23:20:44.615Z,76.46
2023-05-24T23:23:11.260Z,77.00
2023-05-24T23:25:37.910Z,77.03
2023-05-24T23:28:05.058Z,77.02
2023-05-24T23:30:31.735Z,77.02
2023-05-24T23:32:59.543Z,77.68
2023-05-24T23:35:26.227Z,77.34
2023-05-24T23:37:53.877Z,77.54
2023-05-24T23:40:20.956Z,77.79
2023-05-24T23:42:47.525Z,78.23
2023-05-24T23:45:15.831Z,78.66
2023-05-24T23:47:43.639Z,78.33
2023-05-24T23:50:10.977Z,77.83
2023-05-24T23:52:37.978Z,77.70
2023-05-24T23:55:06.495Z,78.04
2023-05-24T23:57:37.068Z,77.88
